createdAt,value
2019-03-10T00:00:26.002Z,9.21
2019-03-10T00:01:26.225Z,9.26
2019-03-10T00:02:26.450Z,9.26
2019-03-10T00:03:26.676Z,9.21
2019-03-10T00:04:26.897Z,9.22
2019-03-10T00:05:27.123Z,9.23
2019-03-10T00:06:27.353Z,9.22
2019-03-10T00:07:27.570Z,9.26
2019-03-10T00:08:27.794Z,9.32
2019-03-10T00:09:28.018Z,9.34
2019-03-10T00:10:28.243Z,9.37
2019-03-10T00:11:28.469Z,9.32
2019-03-10T00:12:28.700Z,9.37
2019-03-10T00:13:28.922Z,9.46
2019-03-10T00:14:29.146Z,9.41
2019-03-10T00:15:29.371Z,9.39
2019-03-10T00:16:29.600Z,9.37
2019-03-10T00:17:29.817Z,9.34
2019-03-10T00:18:30.040Z,9.50
2019-03-10T00:19:30.264Z,9.43
2019-03-10T00:20:30.487Z,9.40
2019-03-10T00:21:30.712Z,9.43
2019-03-10T00:22:30.937Z,9.44
2019-03-10T00:23:31.159Z,9.40
2019-03-10T00:24:31.382Z,9.46
2019-03-10T00:25:31.609Z,9.47
2019-03-10T00:26:31.834Z,9.44
2019-03-10T00:27:32.057Z,9.37
2019-03-10T00:28:32.283Z,9.36
2019-03-10T00:29:32.505Z,9.41
2019-03-10T00:30:32.729Z,9.43
2019-03-10T00:31:32.964Z,9.46
2019-03-10T00:32:33.173Z,9.41
2019-03-10T00:33:33.404Z,9.50
2019-03-10T00:34:33.612Z,9.44
2019-03-10T00:35:33.838Z,9.41
2019-03-10T00:36:34.064Z,9.43
2019-03-10T00:37:34.282Z,9.43
2019-03-10T00:38:34.509Z,9.41
2019-03-10T00:39:34.728Z,9.48
2019-03-10T00:40:34.953Z,9.39
2019-03-10T00:41:35.174Z,9.43
2019-03-10T00:42:35.398Z,9.44
2019-03-10T00:43:35.621Z,9.40
2019-03-10T00:44:35.848Z,9.40
2019-03-10T00:45:36.073Z,9.29
2019-03-10T00:46:36.296Z,9.28
2019-03-10T00:47:36.519Z,9.50
2019-03-10T00:48:36.743Z,9.37
2019-03-10T00:49:36.968Z,9.39
2019-03-10T00:50:37.190Z,9.32
2019-03-10T00:51:37.418Z,9.43
2019-03-10T00:52:37.637Z,9.37
2019-03-10T00:53:37.858Z,9.22
2019-03-10T00:54:38.081Z,9.22
2019-03-10T00:55:38.311Z,9.32
2019-03-10T00:56:38.527Z,9.26
2019-03-10T00:57:38.779Z,9.29
2019-03-10T00:58:38.972Z,9.21
2019-03-10T00:59:39.198Z,9.23
2019-03-10T01:00:39.418Z,9.21
2019-03-10T01:01:39.641Z,9.22
2019-03-10T01:02:39.865Z,9.28
2019-03-10T01:03:40.086Z,9.10
2019-03-10T01:04:40.311Z,9.23
2019-03-10T01:05:40.535Z,9.03
2019-03-10T01:06:40.759Z,9.25
2019-03-10T01:07:40.982Z,9.23
2019-03-10T01:08:41.205Z,9.19
2019-03-10T01:09:41.428Z,9.22
2019-03-10T01:10:41.647Z,9.26
2019-03-10T01:11:41.870Z,9.19
2019-03-10T01:12:42.094Z,9.18
2019-03-10T01:13:42.318Z,9.08
2019-03-10T01:14:42.542Z,9.19
2019-03-10T01:15:42.765Z,9.16
2019-03-10T01:16:42.990Z,9.21
2019-03-10T01:17:43.214Z,9.16
2019-03-10T01:18:43.438Z,9.10
2019-03-10T01:19:43.665Z,9.23
2019-03-10T01:20:43.892Z,9.13
2019-03-10T01:21:44.110Z,9.10
2019-03-10T01:22:44.333Z,9.16
2019-03-10T01:23:44.556Z,8.89
2019-03-10T01:24:44.783Z,9.03
2019-03-10T01:25:45.001Z,9.13
2019-03-10T01:26:45.227Z,9.08
2019-03-10T01:27:45.501Z,9.00
2019-03-10T01:28:45.670Z,9.06
2019-03-10T01:29:45.893Z,9.06
2019-03-10T01:30:46.117Z,9.06
2019-03-10T01:31:46.341Z,9.13
2019-03-10T01:32:46.563Z,9.03
2019-03-10T01:33:46.787Z,9.06
2019-03-10T01:34:47.011Z,9.11
2019-03-10T01:35:47.255Z,8.88
2019-03-10T01:36:47.460Z,8.92
2019-03-10T01:37:47.685Z,9.00
2019-03-10T01:38:47.909Z,9.04
2019-03-10T01:39:48.128Z,8.95
2019-03-10T01:40:48.352Z,8.95
2019-03-10T01:41:48.576Z,9.02
2019-03-10T01:42:48.805Z,9.08
2019-03-10T01:43:49.027Z,9.08
2019-03-10T01:44:49.253Z,9.04
2019-03-10T01:45:49.470Z,9.11
2019-03-10T01:46:49.701Z,9.13
2019-03-10T01:47:49.921Z,9.06
2019-03-10T01:48:50.147Z,9.06
2019-03-10T01:49:50.372Z,9.10
2019-03-10T01:50:50.596Z,9.03
2019-03-10T01:51:50.843Z,9.14
2019-03-10T01:52:51.036Z,9.06
2019-03-10T01:53:51.262Z,9.21
2019-03-10T01:54:51.491Z,9.18
2019-03-10T01:55:51.710Z,9.06
2019-03-10T01:56:51.932Z,9.06
2019-03-10T01:57:52.156Z,9.14
2019-03-10T01:58:52.410Z,9.21
2019-03-10T01:59:52.638Z,9.16
2019-03-10T02:00:52.856Z,9.18
2019-03-10T02:01:53.081Z,9.14
2019-03-10T02:02:53.303Z,9.14
2019-03-10T02:03:53.526Z,9.22
2019-03-10T02:04:53.748Z,9.18
2019-03-10T02:05:53.974Z,9.06
2019-03-10T02:06:54.199Z,9.21
2019-03-10T02:07:54.424Z,9.14
2019-03-10T02:08:54.648Z,9.14
2019-03-10T02:09:54.871Z,9.06
2019-03-10T02:10:55.102Z,9.19
2019-03-10T02:11:55.319Z,9.21
2019-03-10T02:12:55.543Z,9.22
2019-03-10T02:13:55.769Z,9.16
2019-03-10T02:14:55.992Z,9.14
2019-03-10T02:15:56.211Z,9.18
2019-03-10T02:16:56.436Z,9.21
2019-03-10T02:17:56.661Z,9.21
2019-03-10T02:18:56.885Z,9.19
2019-03-10T02:19:57.109Z,9.19
2019-03-10T02:20:57.329Z,9.21
2019-03-10T02:21:57.553Z,9.11
2019-03-10T02:22:57.776Z,9.21
2019-03-10T02:23:57.999Z,9.11
2019-03-10T02:24:58.223Z,9.04
2019-03-10T02:25:58.447Z,9.16
2019-03-10T02:26:58.669Z,9.18
2019-03-10T02:27:58.894Z,9.08
2019-03-10T02:28:59.117Z,9.16
2019-03-10T02:29:59.342Z,9.10
2019-03-10T02:30:59.565Z,9.19
2019-03-10T02:31:59.819Z,9.16
2019-03-10T02:33:00.013Z,9.16
2019-03-10T02:34:00.235Z,9.29
2019-03-10T02:35:00.591Z,9.19
2019-03-10T02:36:00.683Z,9.19
2019-03-10T02:37:00.907Z,9.26
2019-03-10T02:38:01.167Z,9.36
2019-03-10T02:39:01.366Z,9.28
2019-03-10T02:40:01.581Z,9.22
2019-03-10T02:41:01.801Z,9.23
2019-03-10T02:42:02.024Z,9.23
2019-03-10T02:43:02.238Z,9.40
2019-03-10T02:44:02.463Z,9.25
2019-03-10T02:45:02.690Z,9.40
2019-03-10T02:46:02.907Z,9.31
2019-03-10T02:47:03.122Z,9.46
2019-03-10T02:48:03.340Z,9.39
2019-03-10T02:49:03.563Z,9.46
2019-03-10T02:50:03.784Z,9.44
2019-03-10T02:51:04.014Z,9.41
2019-03-10T02:52:04.228Z,9.37
2019-03-10T02:53:04.459Z,9.40
2019-03-10T02:54:04.676Z,9.47
2019-03-10T02:55:04.900Z,9.43
2019-03-10T02:56:05.111Z,9.46
2019-03-10T02:57:05.334Z,9.31
2019-03-10T02:58:05.555Z,9.36
2019-03-10T02:59:05.780Z,9.36
2019-03-10T03:00:06.003Z,9.43
2019-03-10T03:01:06.235Z,9.39
2019-03-10T03:02:06.446Z,9.34
2019-03-10T03:03:06.672Z,9.43
2019-03-10T03:04:06.890Z,9.41
2019-03-10T03:05:07.117Z,9.41
2019-03-10T03:06:07.338Z,9.36
2019-03-10T03:07:07.565Z,9.40
2019-03-10T03:08:07.789Z,9.44
2019-03-10T03:09:08.016Z,9.44
2019-03-10T03:10:08.236Z,9.55
2019-03-10T03:11:08.457Z,9.41
2019-03-10T03:12:08.676Z,9.36
2019-03-10T03:13:08.904Z,9.43
2019-03-10T03:14:09.123Z,9.41
2019-03-10T03:15:09.369Z,9.50
2019-03-10T03:16:09.569Z,9.44
2019-03-10T03:17:09.795Z,9.47
2019-03-10T03:18:10.017Z,9.55
2019-03-10T03:19:10.244Z,9.41
2019-03-10T03:20:10.463Z,9.54
2019-03-10T03:21:10.689Z,9.48
2019-03-10T03:22:10.913Z,9.50
2019-03-10T03:23:11.178Z,9.56
2019-03-10T03:24:11.360Z,9.56
2019-03-10T03:25:11.591Z,9.55
2019-03-10T03:26:11.805Z,9.55
2019-03-10T03:27:12.030Z,9.51
2019-03-10T03:28:12.253Z,9.46
2019-03-10T03:29:12.477Z,9.50
2019-03-10T03:30:12.703Z,9.55
2019-03-10T03:31:12.923Z,9.47
2019-03-10T03:32:13.148Z,9.62
2019-03-10T03:33:13.375Z,9.48
2019-03-10T03:34:13.596Z,9.50
2019-03-10T03:35:13.822Z,9.55
2019-03-10T03:36:14.047Z,9.51
2019-03-10T03:37:14.263Z,9.58
2019-03-10T03:38:14.488Z,9.50
2019-03-10T03:39:14.722Z,9.55
2019-03-10T03:40:14.936Z,9.55
2019-03-10T03:41:15.167Z,9.55
2019-03-10T03:42:15.386Z,9.56
2019-03-10T03:43:15.619Z,9.46
2019-03-10T03:44:15.833Z,9.41
2019-03-10T03:45:16.065Z,9.50
2019-03-10T03:46:16.278Z,9.40
2019-03-10T03:47:16.507Z,9.41
2019-03-10T03:48:16.727Z,9.37
2019-03-10T03:49:16.952Z,9.41
2019-03-10T03:50:17.177Z,9.44
2019-03-10T03:51:17.405Z,9.43
2019-03-10T03:52:17.622Z,9.50
2019-03-10T03:53:17.851Z,9.46
2019-03-10T03:54:18.072Z,9.50
2019-03-10T03:55:18.302Z,9.51
2019-03-10T03:56:18.514Z,9.56
2019-03-10T03:57:18.748Z,9.59
2019-03-10T03:58:18.968Z,9.39
2019-03-10T03:59:19.189Z,9.37
2019-03-10T04:00:19.637Z,9.43
2019-03-10T04:01:19.588Z,9.41
2019-03-10T04:02:19.813Z,9.54
2019-03-10T04:03:20.039Z,9.40
2019-03-10T04:04:20.262Z,9.37
2019-03-10T04:05:20.494Z,9.41
2019-03-10T04:06:20.799Z,9.43
2019-03-10T04:07:20.955Z,9.46
2019-03-10T04:08:21.211Z,9.43
2019-03-10T04:09:21.387Z,9.43
2019-03-10T04:10:21.607Z,9.41
2019-03-10T04:11:21.832Z,9.44
2019-03-10T04:12:22.055Z,9.46
2019-03-10T04:13:22.279Z,9.32
2019-03-10T04:14:22.503Z,9.46
2019-03-10T04:15:22.729Z,9.36
2019-03-10T04:16:22.953Z,9.36
2019-03-10T04:17:23.180Z,9.43
2019-03-10T04:18:23.395Z,9.40
2019-03-10T04:19:23.623Z,9.37
2019-03-10T04:20:23.844Z,9.48
2019-03-10T04:21:24.078Z,9.46
2019-03-10T04:22:24.293Z,9.31
2019-03-10T04:23:24.513Z,9.36
2019-03-10T04:24:24.736Z,9.37
2019-03-10T04:25:24.964Z,9.39
2019-03-10T04:26:25.187Z,9.31
2019-03-10T04:27:25.413Z,9.56
2019-03-10T04:28:25.639Z,9.40
2019-03-10T04:29:25.858Z,9.44
2019-03-10T04:30:26.075Z,9.41
2019-03-10T04:31:26.304Z,9.43
2019-03-10T04:32:26.525Z,9.40
2019-03-10T04:33:26.750Z,9.39
2019-03-10T04:34:26.972Z,9.58
2019-03-10T04:35:27.195Z,9.39
2019-03-10T04:36:27.429Z,9.44
2019-03-10T04:37:27.646Z,9.48
2019-03-10T04:38:27.867Z,9.43
2019-03-10T04:39:28.128Z,9.36
2019-03-10T04:40:28.313Z,9.28
2019-03-10T04:41:28.540Z,9.41
2019-03-10T04:42:28.763Z,9.28
2019-03-10T04:43:28.987Z,9.28
2019-03-10T04:44:29.212Z,9.39
2019-03-10T04:45:29.436Z,9.41
2019-03-10T04:46:29.661Z,9.39
2019-03-10T04:47:29.885Z,9.32
2019-03-10T04:48:30.108Z,9.36
2019-03-10T04:49:30.326Z,9.39
2019-03-10T04:50:30.548Z,9.31
2019-03-10T04:51:30.772Z,9.29
2019-03-10T04:52:31.007Z,9.29
2019-03-10T04:53:31.220Z,9.23
2019-03-10T04:54:31.442Z,9.36
2019-03-10T04:55:31.669Z,9.25
2019-03-10T04:56:31.890Z,9.16
2019-03-10T04:57:32.113Z,9.28
2019-03-10T04:58:32.355Z,9.18
2019-03-10T04:59:32.567Z,9.11
2019-03-10T05:00:32.765Z,9.16
2019-03-10T05:01:33.039Z,9.23
2019-03-10T05:02:33.210Z,9.23
2019-03-10T05:03:33.436Z,9.23
2019-03-10T05:04:33.658Z,9.13
2019-03-10T05:05:33.881Z,9.28
2019-03-10T05:06:34.108Z,9.21
2019-03-10T05:07:34.331Z,9.04
2019-03-10T05:08:34.553Z,8.87
2019-03-10T05:09:34.781Z,8.85
2019-03-10T05:10:35.006Z,8.91
2019-03-10T05:11:35.227Z,8.85
2019-03-10T05:12:35.452Z,8.87
2019-03-10T05:13:35.677Z,8.87
2019-03-10T05:14:35.900Z,8.82
2019-03-10T05:15:36.125Z,8.79
2019-03-10T05:16:36.348Z,8.63
2019-03-10T05:17:36.572Z,8.67
2019-03-10T05:18:36.794Z,8.73
2019-03-10T05:19:37.023Z,8.79
2019-03-10T05:20:37.239Z,8.89
2019-03-10T05:21:37.470Z,8.97
2019-03-10T05:22:37.687Z,8.87
2019-03-10T05:23:37.910Z,9.00
2019-03-10T05:24:38.135Z,8.85
2019-03-10T05:25:38.357Z,8.94
2019-03-10T05:26:38.581Z,9.00
2019-03-10T05:27:38.809Z,8.94
2019-03-10T05:28:39.031Z,9.03
2019-03-10T05:29:39.252Z,9.02
2019-03-10T05:30:39.479Z,9.04
2019-03-10T05:31:39.706Z,9.03
2019-03-10T05:32:39.922Z,9.06
2019-03-10T05:33:40.145Z,8.99
2019-03-10T05:34:40.434Z,9.04
2019-03-10T05:35:40.592Z,8.97
2019-03-10T05:36:40.816Z,8.91
2019-03-10T05:37:41.038Z,8.92
2019-03-10T05:38:41.263Z,8.87
2019-03-10T05:39:41.486Z,8.89
2019-03-10T05:40:41.712Z,8.91
2019-03-10T05:41:41.935Z,8.82
2019-03-10T05:42:42.154Z,8.81
2019-03-10T05:43:42.379Z,8.84
2019-03-10T05:44:42.599Z,8.87
2019-03-10T05:45:42.824Z,8.87
2019-03-10T05:46:43.048Z,8.78
2019-03-10T05:47:43.287Z,8.81
2019-03-10T05:48:43.497Z,8.81
2019-03-10T05:49:43.719Z,8.81
2019-03-10T05:50:43.942Z,8.81
2019-03-10T05:51:44.170Z,8.87
2019-03-10T05:52:44.390Z,8.73
2019-03-10T05:53:44.616Z,8.78
2019-03-10T05:54:44.841Z,8.78
2019-03-10T05:55:45.063Z,8.81
2019-03-10T05:56:45.285Z,8.82
2019-03-10T05:57:45.510Z,8.67
2019-03-10T05:58:45.736Z,8.76
2019-03-10T05:59:45.951Z,8.69
2019-03-10T06:00:46.174Z,8.60
2019-03-10T06:01:46.398Z,8.61
2019-03-10T06:02:46.624Z,8.61
2019-03-10T06:03:46.845Z,8.52
2019-03-10T06:04:47.092Z,8.56
2019-03-10T06:05:47.293Z,8.66
2019-03-10T06:06:47.516Z,8.49
2019-03-10T06:07:47.743Z,8.56
2019-03-10T06:08:47.964Z,8.58
2019-03-10T06:09:48.186Z,8.53
2019-03-10T06:10:48.409Z,8.55
2019-03-10T06:11:48.634Z,8.55
2019-03-10T06:12:48.858Z,8.58
2019-03-10T06:13:49.083Z,8.51
2019-03-10T06:14:49.306Z,8.51
2019-03-10T06:15:49.540Z,8.48
2019-03-10T06:16:49.754Z,8.44
2019-03-10T06:17:49.981Z,8.45
2019-03-10T06:18:50.205Z,8.27
2019-03-10T06:19:50.427Z,8.05
2019-03-10T06:20:50.654Z,7.98
2019-03-10T06:21:50.880Z,7.91
2019-03-10T06:22:51.103Z,7.85
2019-03-10T06:23:51.324Z,7.91
2019-03-10T06:24:51.543Z,7.87
2019-03-10T06:25:51.772Z,7.85
2019-03-10T06:26:51.994Z,7.91
2019-03-10T06:27:52.218Z,8.00
2019-03-10T06:28:52.452Z,8.03
2019-03-10T06:29:52.667Z,8.01
2019-03-10T06:30:52.891Z,8.00
2019-03-10T06:31:53.115Z,7.90
2019-03-10T06:32:53.340Z,7.85
2019-03-10T06:33:53.563Z,7.85
2019-03-10T06:34:53.789Z,7.88
2019-03-10T06:35:54.013Z,7.98
2019-03-10T06:36:54.224Z,8.06
2019-03-10T06:37:54.446Z,8.12
2019-03-10T06:38:55.291Z,8.09
2019-03-10T06:39:54.892Z,8.15
2019-03-10T06:40:55.112Z,8.18
2019-03-10T06:41:55.335Z,8.15
2019-03-10T06:42:55.558Z,8.06
2019-03-10T06:43:55.781Z,8.08
2019-03-10T06:44:56.005Z,8.18
2019-03-10T06:45:56.228Z,8.06
2019-03-10T06:46:56.477Z,8.16
2019-03-10T06:47:56.690Z,8.05
2019-03-10T06:48:56.912Z,8.10
2019-03-10T06:49:57.149Z,8.18
2019-03-10T06:50:57.360Z,8.09
2019-03-10T06:51:57.583Z,8.03
2019-03-10T06:52:57.807Z,7.85
2019-03-10T06:53:58.031Z,8.01
2019-03-10T06:54:58.254Z,8.00
2019-03-10T06:55:58.478Z,7.72
2019-03-10T06:56:58.702Z,7.73
2019-03-10T06:57:58.929Z,7.75
2019-03-10T06:58:59.149Z,7.60
2019-03-10T06:59:59.373Z,7.58
2019-03-10T07:00:59.594Z,7.53
2019-03-10T07:01:59.826Z,7.50
2019-03-10T07:03:00.043Z,7.32
2019-03-10T07:04:00.266Z,7.39
2019-03-10T07:05:00.491Z,7.45
2019-03-10T07:06:00.714Z,7.39
2019-03-10T07:07:00.947Z,7.50
2019-03-10T07:08:01.162Z,7.56
2019-03-10T07:09:01.386Z,7.39
2019-03-10T07:10:01.610Z,7.42
2019-03-10T07:11:01.834Z,7.45
2019-03-10T07:12:02.057Z,7.60
2019-03-10T07:13:02.292Z,7.56
2019-03-10T07:14:02.521Z,7.50
2019-03-10T07:15:02.742Z,7.45
2019-03-10T07:16:02.966Z,7.47
2019-03-10T07:17:03.184Z,7.47
2019-03-10T07:18:03.407Z,7.32
2019-03-10T07:19:03.707Z,7.24
2019-03-10T07:20:03.854Z,7.32
2019-03-10T07:21:04.079Z,7.28
2019-03-10T07:22:04.303Z,7.17
2019-03-10T07:23:04.521Z,7.15
2019-03-10T07:24:04.749Z,7.11
2019-03-10T07:25:04.965Z,7.10
2019-03-10T07:26:05.196Z,7.06
2019-03-10T07:27:05.412Z,7.05
2019-03-10T07:28:05.638Z,7.11
2019-03-10T07:29:05.917Z,7.31
2019-03-10T07:30:06.091Z,7.38
2019-03-10T07:31:06.306Z,7.40
2019-03-10T07:32:08.867Z,7.42
2019-03-10T07:33:06.754Z,7.54
2019-03-10T07:34:06.984Z,7.40
2019-03-10T07:35:07.203Z,7.43
2019-03-10T07:36:07.430Z,7.24
2019-03-10T07:37:07.648Z,7.32
2019-03-10T07:38:07.869Z,7.39
2019-03-10T07:39:08.100Z,7.33
2019-03-10T07:40:08.321Z,7.39
2019-03-10T07:41:08.541Z,7.40
2019-03-10T07:42:08.767Z,7.54
2019-03-10T07:43:08.988Z,7.54
2019-03-10T07:44:09.214Z,7.57
2019-03-10T07:45:09.437Z,7.63
2019-03-10T07:46:09.661Z,7.66
2019-03-10T07:47:09.888Z,7.70
2019-03-10T07:48:10.124Z,7.80
2019-03-10T07:49:10.328Z,7.69
2019-03-10T07:50:10.553Z,7.80
2019-03-10T07:51:10.778Z,7.76
2019-03-10T07:52:19.915Z,7.79
2019-03-10T07:53:11.225Z,7.79
2019-03-10T07:54:11.448Z,7.75
2019-03-10T07:55:11.675Z,7.80
2019-03-10T07:56:11.897Z,7.76
2019-03-10T07:57:12.118Z,7.76
2019-03-10T07:58:12.350Z,7.85
2019-03-10T07:59:12.570Z,7.77
2019-03-10T08:00:12.787Z,7.88
2019-03-10T08:01:13.006Z,7.87
2019-03-10T08:02:13.234Z,7.82
2019-03-10T08:03:13.457Z,7.90
2019-03-10T08:04:13.679Z,7.93
2019-03-10T08:05:13.906Z,8.13
2019-03-10T08:06:14.126Z,8.13
2019-03-10T08:07:14.353Z,8.09
2019-03-10T08:08:14.571Z,8.12
2019-03-10T08:09:14.793Z,8.28
2019-03-10T08:10:15.018Z,8.27
2019-03-10T08:11:15.242Z,8.27
2019-03-10T08:12:15.465Z,8.26
2019-03-10T08:13:15.691Z,8.38
2019-03-10T08:14:15.912Z,8.26
2019-03-10T08:15:16.134Z,8.26
2019-03-10T08:16:16.362Z,8.20
2019-03-10T08:17:16.587Z,8.19
2019-03-10T08:18:16.802Z,8.34
2019-03-10T08:19:17.029Z,8.42
2019-03-10T08:20:17.255Z,8.48
2019-03-10T08:21:17.480Z,8.41
2019-03-10T08:22:17.698Z,8.52
2019-03-10T08:23:17.921Z,8.41
2019-03-10T08:24:18.147Z,8.41
2019-03-10T08:25:18.374Z,8.41
2019-03-10T08:26:18.588Z,8.30
2019-03-10T08:27:18.810Z,8.41
2019-03-10T08:28:20.391Z,8.38
2019-03-10T08:29:19.266Z,8.41
2019-03-10T08:30:19.525Z,8.42
2019-03-10T08:31:19.691Z,8.36
2019-03-10T08:32:19.910Z,8.36
2019-03-10T08:33:20.137Z,8.23
2019-03-10T08:34:20.362Z,8.20
2019-03-10T08:35:20.590Z,8.20
2019-03-10T08:36:20.812Z,8.41
2019-03-10T08:37:21.033Z,8.41
2019-03-10T08:38:21.258Z,8.46
2019-03-10T08:39:21.481Z,8.42
2019-03-10T08:40:21.705Z,8.46
2019-03-10T08:41:21.930Z,8.42
2019-03-10T08:42:22.156Z,8.37
2019-03-10T08:43:22.377Z,8.37
2019-03-10T08:44:22.598Z,8.41
2019-03-10T08:45:22.827Z,8.49
2019-03-10T08:46:23.057Z,8.53
2019-03-10T08:47:23.278Z,8.71
2019-03-10T08:48:23.501Z,8.69
2019-03-10T08:49:23.728Z,8.76
2019-03-10T08:50:23.954Z,8.61
2019-03-10T08:51:24.176Z,8.64
2019-03-10T08:52:24.398Z,8.74
2019-03-10T08:53:24.622Z,8.74
2019-03-10T08:54:24.849Z,8.79
2019-03-10T08:55:25.082Z,8.78
2019-03-10T08:56:25.297Z,8.91
2019-03-10T08:57:25.522Z,8.69
2019-03-10T08:58:25.758Z,8.81
2019-03-10T08:59:25.985Z,8.95
2019-03-10T09:00:26.206Z,9.03
2019-03-10T09:01:26.427Z,8.92
2019-03-10T09:02:26.676Z,8.91
2019-03-10T09:03:26.878Z,8.92
2019-03-10T09:04:27.102Z,9.08
2019-03-10T09:05:27.326Z,9.11
2019-03-10T09:06:27.551Z,9.10
2019-03-10T09:07:27.775Z,9.02
2019-03-10T09:08:28.001Z,8.92
2019-03-10T09:09:28.221Z,8.87
2019-03-10T09:10:28.446Z,8.91
2019-03-10T09:11:28.669Z,8.99
2019-03-10T09:12:28.895Z,9.08
2019-03-10T09:13:29.121Z,9.02
2019-03-10T09:14:29.347Z,9.02
2019-03-10T09:15:29.566Z,9.00
2019-03-10T09:16:29.790Z,8.89
2019-03-10T09:17:30.019Z,8.94
2019-03-10T09:18:30.253Z,8.92
2019-03-10T09:19:30.487Z,8.92
2019-03-10T09:20:30.708Z,8.99
2019-03-10T09:21:30.934Z,8.87
2019-03-10T09:22:31.164Z,8.92
2019-03-10T09:23:31.384Z,8.89
2019-03-10T09:24:31.604Z,9.08
2019-03-10T09:25:31.829Z,9.06
2019-03-10T09:26:32.054Z,9.31
2019-03-10T09:27:32.279Z,9.23
2019-03-10T09:28:32.502Z,9.23
2019-03-10T09:29:32.726Z,9.23
2019-03-10T09:30:32.950Z,9.26
2019-03-10T09:31:33.169Z,9.43
2019-03-10T09:32:33.398Z,9.54
2019-03-10T09:33:33.620Z,9.36
2019-03-10T09:34:33.846Z,9.39
2019-03-10T09:35:34.073Z,9.26
2019-03-10T09:36:34.296Z,9.39
2019-03-10T09:37:34.529Z,9.43
2019-03-10T09:38:34.756Z,9.40
2019-03-10T09:39:34.979Z,9.34
2019-03-10T09:40:35.203Z,9.51
2019-03-10T09:41:35.428Z,9.56
2019-03-10T09:42:35.656Z,9.64
2019-03-10T09:43:35.880Z,9.51
2019-03-10T09:44:36.107Z,9.51
2019-03-10T09:45:36.330Z,9.41
2019-03-10T09:46:36.554Z,9.44
2019-03-10T09:47:36.774Z,9.34
2019-03-10T09:48:36.999Z,9.34
2019-03-10T09:49:37.228Z,9.55
2019-03-10T09:50:37.450Z,9.31
2019-03-10T09:51:37.675Z,9.41
2019-03-10T09:52:37.901Z,9.28
2019-03-10T09:53:38.125Z,9.48
2019-03-10T09:54:38.349Z,9.56
2019-03-10T09:55:38.573Z,9.77
2019-03-10T09:56:38.797Z,9.84
2019-03-10T09:57:39.022Z,9.94
2019-03-10T09:58:39.250Z,9.97
2019-03-10T09:59:39.473Z,10.01
2019-03-10T10:00:39.699Z,10.15
2019-03-10T10:01:39.924Z,10.10
2019-03-10T10:02:40.150Z,9.94
2019-03-10T10:03:40.374Z,10.05
2019-03-10T10:04:40.596Z,10.13
2019-03-10T10:05:40.820Z,10.13
2019-03-10T10:06:41.049Z,10.10
2019-03-10T10:07:41.279Z,10.16
2019-03-10T10:08:41.502Z,10.20
2019-03-10T10:09:41.727Z,10.30
2019-03-10T10:10:41.955Z,10.44
2019-03-10T10:11:42.171Z,10.49
2019-03-10T10:12:42.398Z,10.49
2019-03-10T10:13:42.619Z,10.20
2019-03-10T10:14:42.845Z,10.20
2019-03-10T10:15:43.074Z,10.30
2019-03-10T10:16:43.299Z,10.48
2019-03-10T10:17:43.522Z,10.59
2019-03-10T10:18:43.750Z,10.64
2019-03-10T10:19:43.979Z,10.53
2019-03-10T10:20:44.200Z,10.59
2019-03-10T10:21:44.439Z,10.69
2019-03-10T10:22:44.662Z,10.72
2019-03-10T10:23:44.888Z,10.56
2019-03-10T10:24:45.114Z,10.57
2019-03-10T10:25:45.337Z,10.71
2019-03-10T10:26:45.564Z,10.74
2019-03-10T10:27:45.790Z,10.71
2019-03-10T10:28:46.036Z,10.64
2019-03-10T10:29:46.271Z,10.60
2019-03-10T10:30:46.553Z,10.63
2019-03-10T10:31:46.727Z,10.54
2019-03-10T10:32:46.953Z,10.63
2019-03-10T10:33:47.187Z,10.61
2019-03-10T10:34:47.417Z,10.53
2019-03-10T10:35:47.661Z,10.71
2019-03-10T10:36:47.926Z,10.87
2019-03-10T10:37:48.162Z,10.90
2019-03-10T10:38:48.404Z,10.94
2019-03-10T10:39:48.624Z,10.86
2019-03-10T10:40:48.850Z,10.96
2019-03-10T10:41:49.077Z,10.87
2019-03-10T10:42:49.308Z,10.82
2019-03-10T10:43:49.530Z,11.05
2019-03-10T10:44:49.760Z,11.00
2019-03-10T10:45:49.987Z,10.99
2019-03-10T10:46:50.209Z,10.82
2019-03-10T10:47:50.431Z,10.90
2019-03-10T10:48:50.660Z,11.02
2019-03-10T10:49:50.888Z,11.15
2019-03-10T10:50:51.113Z,11.32
2019-03-10T10:51:51.338Z,11.57
2019-03-10T10:52:51.565Z,11.59
2019-03-10T10:53:51.799Z,11.87
2019-03-10T10:54:52.076Z,12.12
2019-03-10T10:55:52.306Z,12.18
2019-03-10T10:56:52.533Z,12.28
2019-03-10T10:57:52.765Z,12.27
2019-03-10T10:58:53.002Z,12.43
2019-03-10T10:59:53.230Z,12.31
2019-03-10T11:00:53.466Z,12.49
2019-03-10T11:01:53.692Z,12.62
2019-03-10T11:02:53.922Z,12.75
2019-03-10T11:03:54.146Z,13.01
2019-03-10T11:04:54.377Z,13.05
2019-03-10T11:05:54.601Z,13.25
2019-03-10T11:06:54.827Z,13.15
2019-03-10T11:07:55.074Z,13.37
2019-03-10T11:08:55.280Z,13.49
2019-03-10T11:09:55.504Z,13.57
2019-03-10T11:10:55.733Z,13.65
2019-03-10T11:11:55.964Z,13.78
2019-03-10T11:12:56.190Z,13.89
2019-03-10T11:13:56.413Z,13.96
2019-03-10T11:14:56.642Z,13.97
2019-03-10T11:15:56.871Z,13.87
2019-03-10T11:16:57.105Z,13.89
2019-03-10T11:18:08.387Z,13.95
2019-03-10T11:18:57.555Z,13.96
2019-03-10T11:19:57.805Z,14.05
2019-03-10T11:20:58.064Z,14.15
2019-03-10T11:21:58.296Z,14.18
2019-03-10T11:22:58.530Z,14.14
2019-03-10T11:23:58.758Z,14.26
2019-03-10T11:24:58.995Z,14.45
2019-03-10T11:25:59.238Z,14.47
2019-03-10T11:26:59.465Z,14.59
2019-03-10T11:27:59.692Z,14.65
2019-03-10T11:29:03.579Z,14.59
2019-03-10T11:30:00.420Z,14.69
2019-03-10T11:31:00.372Z,14.86
2019-03-10T11:32:00.603Z,14.89
2019-03-10T11:33:00.834Z,14.96
2019-03-10T11:34:01.065Z,15.11
2019-03-10T11:35:01.287Z,15.19
2019-03-10T11:36:01.513Z,15.31
2019-03-10T11:37:01.803Z,15.51
2019-03-10T11:38:01.968Z,15.55
2019-03-10T11:39:02.192Z,15.68
2019-03-10T11:40:02.419Z,15.58
2019-03-10T11:41:02.648Z,15.58
2019-03-10T11:42:02.878Z,15.58
2019-03-10T11:43:03.174Z,15.59
2019-03-10T11:44:03.331Z,15.55
2019-03-10T11:45:03.555Z,15.44
2019-03-10T11:46:03.788Z,15.44
2019-03-10T11:47:04.019Z,15.52
2019-03-10T11:48:04.249Z,15.43
2019-03-10T11:49:04.473Z,15.27
2019-03-10T11:50:04.702Z,15.19
2019-03-10T11:51:04.937Z,15.06
2019-03-10T11:52:05.158Z,15.00
2019-03-10T11:53:05.387Z,14.97
2019-03-10T11:54:05.626Z,15.03
2019-03-10T11:55:05.881Z,15.07
2019-03-10T11:56:06.093Z,15.02
2019-03-10T11:57:06.328Z,14.84
2019-03-10T11:58:06.555Z,14.70
2019-03-10T11:59:06.780Z,14.72
2019-03-10T12:00:07.013Z,14.63
2019-03-10T12:01:07.251Z,14.65
2019-03-10T12:02:15.506Z,14.50
2019-03-10T12:03:07.723Z,14.44
2019-03-10T12:04:10.259Z,14.26
2019-03-10T12:05:08.206Z,14.44
2019-03-10T12:06:08.448Z,14.54
2019-03-10T12:07:08.725Z,14.54
2019-03-10T12:08:09.017Z,14.63
2019-03-10T12:09:09.121Z,14.62
2019-03-10T12:10:09.344Z,14.66
2019-03-10T12:11:09.584Z,14.70
2019-03-10T12:12:09.819Z,14.85
2019-03-10T12:13:10.048Z,14.88
2019-03-10T12:14:10.274Z,14.94
2019-03-10T12:15:10.521Z,14.94
2019-03-10T12:16:10.747Z,14.99
2019-03-10T12:17:11.016Z,14.96
2019-03-10T12:18:11.253Z,15.00
2019-03-10T12:19:11.545Z,14.91
2019-03-10T12:20:11.773Z,14.94
2019-03-10T12:21:12.015Z,14.99
2019-03-10T12:22:12.340Z,15.07
2019-03-10T12:23:12.464Z,15.03
2019-03-10T12:24:12.690Z,15.25
2019-03-10T12:25:12.940Z,15.22
2019-03-10T12:26:13.185Z,15.28
2019-03-10T12:27:13.465Z,15.33
2019-03-10T12:28:13.621Z,15.28
2019-03-10T12:29:13.981Z,15.28
2019-03-10T12:30:14.207Z,15.17
2019-03-10T12:31:14.433Z,15.09
2019-03-10T12:32:14.601Z,15.15
2019-03-10T12:33:14.771Z,14.99
2019-03-10T12:34:14.947Z,14.86
2019-03-10T12:35:15.186Z,14.60
2019-03-10T12:36:15.345Z,14.41
2019-03-10T12:37:15.599Z,14.20
2019-03-10T12:38:15.873Z,13.89
2019-03-10T12:39:17.174Z,13.74
2019-03-10T12:40:16.290Z,13.56
2019-03-10T12:41:16.557Z,13.54
2019-03-10T12:42:16.847Z,13.65
2019-03-10T12:43:16.967Z,13.60
2019-03-10T12:44:17.228Z,13.70
2019-03-10T12:45:17.473Z,13.79
2019-03-10T12:46:17.720Z,13.77
2019-03-10T12:47:17.985Z,13.87
2019-03-10T12:48:18.219Z,14.00
2019-03-10T12:49:18.465Z,13.92
2019-03-10T12:50:19.002Z,14.08
2019-03-10T12:51:18.911Z,14.14
2019-03-10T12:52:19.191Z,14.22
2019-03-10T12:53:19.485Z,14.18
2019-03-10T12:54:19.684Z,14.22
2019-03-10T12:55:19.848Z,14.25
2019-03-10T12:56:20.041Z,14.25
2019-03-10T12:57:20.187Z,14.40
2019-03-10T12:58:20.484Z,14.40
2019-03-10T12:59:20.738Z,14.44
2019-03-10T13:00:20.892Z,14.45
2019-03-10T13:01:21.251Z,14.50
2019-03-10T13:02:21.402Z,14.54
2019-03-10T13:03:21.723Z,14.62
2019-03-10T13:04:21.840Z,14.53
2019-03-10T13:05:22.150Z,14.65
2019-03-10T13:06:22.302Z,14.58
2019-03-10T13:07:22.557Z,14.62
2019-03-10T13:08:22.808Z,14.53
2019-03-10T13:09:23.082Z,14.59
2019-03-10T13:10:23.318Z,14.59
2019-03-10T13:11:23.682Z,14.58
2019-03-10T13:12:23.877Z,14.45
2019-03-10T13:13:24.059Z,14.54
2019-03-10T13:14:24.300Z,14.54